Гора Придорожная

Карта отелей и гостиниц, располагающихся рядом с аэропортом Гора Придорожная :

Гора Придорожная Челябинская область 55° 6' 28.08" N, 60° 39' 36.18" E
Гора Придорожная Челябинская область 55° 6' 28.08" N, 60° 39' 36.18" E
Код аэродрома ИКАО: 
HAA7
Код аэродрома RU: 
ХАА7
Координаты: 
N55.10780° E060.66005°
Превышение над уровнем моря : 
290
Основная полоса: 
35/17
Курс магнитный: 
351,7/171,7
Длина основной ВПП: 
24
Ширина основной ВПП: 
12
Покрытие основной ВПП: 
Твёрдое
Тип: 
Вертодром
Освещение ВПП: 
Нет
Класс аэродрома: 
Статус: 
Действующий
Принадлежность: 
МО
Сайт: 
E-mail аэродрома: 
Страна: 
Россия
Регион: 
Челябинская область
Город: 
Дополнительная информация: 
Оператор: учебный полигон войск Центрального ВО (Азов).

Найти трансфер

С помощью этой формы Вы можете найти трансфер из аэропорта Гора Придорожная в город, аэропорт или вокзал:

Карта места

Javascript is required to view this map.

Погода в аэропортах:

Авиационная погода в аэропорту Сокол

Регион: 
Погода METAR: 
UHMM 141800Z 00000MPS 0250 0200W R10/0200N FG VV002 09/08 Q0998 RMK QBB060 MT OBSC QFE734 R28/24001MPS
Время наблюдения: 
2020-07-14T18:00:00Z
Температура C: 
9.0
Точка росы: 
8.0
Направление ветра: 
0
Скорость ветра: 
0
Метеорологическая видимость: 
0.16
Явления погоды: 
FG
Условия полета: 
LIFR
Аэропорт подробнее: 

Авиационная погода в Ульяновске

Регион: 
Погода METAR: 
UWLW 141800Z 11002MPS 8000 TS BKN040CB 29/16 Q1008 R02/CLRD60 NOSIG RMK QFE749
Время наблюдения: 
2020-07-14T18:00:00Z
Температура C: 
29.0
Точка росы: 
16.0
Направление ветра: 
110
Скорость ветра: 
4
Метеорологическая видимость: 
4.97
Явления погоды: 
TS
Условия полета: 
MVFR

Авиационная погода в Москва - Шереметьево

Регион: 
Погода METAR: 
UUEE 141730Z 03008G13MPS 7000 -SHRA BKN020CB 16/14 Q1003 RETSRA R06R/290251 TEMPO 02011G19MPS 1000 TSRA
Время наблюдения: 
2020-07-14T17:30:00Z
Температура C: 
16.0
Точка росы: 
14.0
Направление ветра: 
30
Скорость ветра: 
16
Метеорологическая видимость: 
4.35
Явления погоды: 
-SHRA
Условия полета: 
MVFR
Аэропорт подробнее: 

Авиационная погода в Калуге (Грабцево)

Регион: 
Погода METAR: 
UUBC 141730Z 36005MPS 330V030 9000 -SHRA BKN009 OVC020CB 16/15 Q0998 R31/290250 TEMPO 01011G16MPS 1200 SHRA BKN005CB RMK QFE732/0976
Время наблюдения: 
2020-07-14T17:30:00Z
Температура C: 
16.0
Точка росы: 
15.0
Направление ветра: 
360
Скорость ветра: 
10
Метеорологическая видимость: 
5.59
Явления погоды: 
-SHRA
Условия полета: 
IFR